Time;durP1;ratioP1;P1;durP2;ratioP2;P2;SDS_P1;SDS_P2;PMS_P1;PMS_P2;Temp;Humidity;BMP_temperature;BMP_pressure;BME280_temperature;BME280_humidity;BME280_pressure;Samples;Min_cycle;Max_cycle;Signal;HPM_P1;HPM_P2
2023/08/11 00:01:32;;;;;;;4.97;4.13;;;;;;;16.92;90.04;155708.69;5031957;28;20452;-82
2023/08/11 00:08:48;;;;;;;4.00;3.60;;;;;;;16.97;90.99;155721.75;5049252;28;20416;-82
2023/08/11 00:11:15;;;;;;;5.80;3.40;;;;;;;16.89;88.47;155700.94;5030929;28;20486;-83
2023/08/11 00:13:43;;;;;;;4.10;3.70;;;;;;;16.84;87.38;155687.88;5031324;28;20448;-83
2023/08/11 00:16:10;;;;;;;3.90;3.50;;;;;;;16.81;87.79;155680.09;5031335;28;20687;-83
2023/08/11 00:18:37;;;;;;;3.90;3.50;;;;;;;16.79;87.95;155676.19;5047493;28;20460;-83
2023/08/11 00:21:04;;;;;;;3.77;3.47;;;;;;;16.83;90.71;155685.31;5047693;28;20652;-83
2023/08/11 00:23:31;;;;;;;4.83;4.23;;;;;;;16.78;90.49;155673.59;5051650;28;20440;-83
2023/08/11 00:26:00;;;;;;;4.27;3.87;;;;;;;16.74;90.59;155663.16;5051181;28;20749;-83
2023/08/11 00:28:28;;;;;;;4.90;3.80;;;;;;;16.66;89.48;155642.34;5034786;28;20424;-83
2023/08/11 00:30:55;;;;;;;4.60;4.20;;;;;;;16.65;90.06;155639.78;5034825;28;20515;-83
2023/08/11 00:33:22;;;;;;;3.70;3.40;;;;;;;16.61;90.72;155629.34;5044893;28;20501;-83
2023/08/11 00:35:49;;;;;;;5.00;3.83;;;;;;;16.60;92.01;155626.72;5054884;28;20466;-83
2023/08/11 00:38:16;;;;;;;4.00;3.60;;;;;;;16.60;90.49;155626.72;5055045;28;20435;-83
2023/08/11 00:40:43;;;;;;;4.07;3.63;;;;;;;16.59;92.81;155624.16;5071059;28;20502;-82
2023/08/11 00:43:13;;;;;;;5.20;4.00;;;;;;;16.54;92.91;155611.16;5054298;28;20481;-83
2023/08/11 00:45:45;;;;;;;5.40;3.80;;;;;;;16.52;92.74;155605.88;5070971;28;20436;-83
2023/08/11 00:48:12;;;;;;;6.37;4.30;;;;;;;16.45;92.31;155587.66;5037572;28;20463;-83
2023/08/11 00:50:40;;;;;;;4.90;4.40;;;;;;;16.40;91.40;155575.97;5054623;28;20492;-83
2023/08/11 00:53:08;;;;;;;5.30;3.87;;;;;;;16.40;90.72;155574.66;5054258;28;20436;-82
2023/08/11 00:55:35;;;;;;;4.47;3.90;;;;;;;16.39;91.17;155572.06;5038183;28;20474;-83
2023/08/11 00:58:02;;;;;;;4.47;4.07;;;;;;;16.38;93.43;155569.47;5054340;28;20431;-83
2023/08/11 01:00:31;;;;;;;4.77;4.27;;;;;;;16.32;92.43;155555.16;5054334;28;20533;-83
2023/08/11 01:02:58;;;;;;;4.87;4.37;;;;;;;16.35;93.21;155561.66;5070986;28;20624;-82
2023/08/11 01:05:25;;;;;;;4.83;4.10;;;;;;;16.31;92.88;155552.56;5054369;28;20503;-82
2023/08/11 01:08:00;;;;;;;4.40;4.00;;;;;;;16.24;92.53;155533.06;5054181;28;20806;-83
2023/08/11 01:10:34;;;;;;;5.37;4.67;;;;;;;16.21;92.49;155525.25;5038222;28;20453;-82
2023/08/11 01:13:09;;;;;;;4.47;3.43;;;;;;;16.17;91.65;155514.88;5037307;28;20484;-83
2023/08/11 01:15:40;;;;;;;4.60;4.10;;;;;;;16.19;93.55;155521.38;5054518;28;20442;-82
2023/08/11 01:18:08;;;;;;;4.93;4.47;;;;;;;16.17;92.52;155514.88;5053667;28;20505;-82
2023/08/11 01:20:36;;;;;;;5.20;4.40;;;;;;;16.15;92.56;155510.94;5037490;28;20482;-82
2023/08/11 01:23:02;;;;;;;5.30;4.70;;;;;;;16.25;96.07;155535.66;5054653;28;20431;-82
2023/08/11 01:25:31;;;;;;;5.67;4.57;;;;;;;16.30;95.05;155548.66;5037816;28;20531;-82
2023/08/11 01:27:59;;;;;;;6.53;4.53;;;;;;;16.30;95.21;155548.66;5054103;28;20496;-82
2023/08/11 01:30:27;;;;;;;5.77;5.00;;;;;;;16.24;95.31;155533.06;5037831;28;20431;-82
2023/08/11 01:32:54;;;;;;;5.10;4.60;;;;;;;16.22;96.01;155527.84;5066525;28;20702;-82
2023/08/11 01:35:21;;;;;;;8.33;4.87;;;;;;;16.17;96.59;155514.88;5034561;28;20435;-82
2023/08/11 01:37:51;;;;;;;5.43;4.93;;;;;;;16.15;97.09;155509.66;5034475;28;20478;-82
2023/08/11 01:40:18;;;;;;;5.67;5.03;;;;;;;16.16;98.82;155512.25;5067232;28;20476;-83
2023/08/11 01:42:46;;;;;;;5.20;4.67;;;;;;;16.11;99.01;155500.56;5050293;28;20451;-83
2023/08/11 01:45:15;;;;;;;6.77;5.30;;;;;;;16.08;98.78;155491.44;5066495;28;20502;-82
2023/08/11 01:47:45;;;;;;;6.03;5.50;;;;;;;16.08;99.13;155492.75;5066571;28;20443;-82
2023/08/11 01:50:13;;;;;;;6.30;5.30;;;;;;;16.07;99.49;155488.88;5050960;28;20432;-82
2023/08/11 01:52:43;;;;;;;5.47;4.90;;;;;;;16.06;99.68;155486.25;5049759;28;20448;-82
2023/08/11 01:55:18;;;;;;;6.30;5.70;;;;;;;16.05;99.32;155483.63;5034115;28;20432;-83
2023/08/11 01:57:47;;;;;;;5.27;4.77;;;;;;;16.04;99.18;155481.06;5050601;28;20467;-82
2023/08/11 02:00:14;;;;;;;6.40;5.37;;;;;;;16.01;99.21;155473.25;5035288;28;20479;-82
2023/08/11 02:02:42;;;;;;;5.83;5.23;;;;;;;15.95;98.55;155458.94;5050937;28;20467;-83
2023/08/11 02:05:11;;;;;;;6.90;5.90;;;;;;;15.95;98.74;155458.94;5048208;28;20523;-83
2023/08/11 02:07:38;;;;;;;5.50;4.80;;;;;;;15.95;98.96;155457.63;5031136;28;20455;-82
2023/08/11 02:10:06;;;;;;;5.67;5.07;;;;;;;15.88;98.84;155439.44;5031690;28;20483;-83
2023/08/11 02:12:33;;;;;;;5.77;5.27;;;;;;;15.86;100.00;155435.50;5047693;28;20761;-84
2023/08/11 02:15:02;;;;;;;6.23;5.67;;;;;;;15.79;100.00;155418.63;5050057;28;20462;-83
2023/08/11 02:17:31;;;;;;;5.80;5.30;;;;;;;15.74;99.66;155405.66;5049828;28;20452;-83
2023/08/11 02:19:58;;;;;;;6.80;5.77;;;;;;;15.75;100.00;155408.22;5031176;28;20492;-83
2023/08/11 02:22:25;;;;;;;6.90;6.20;;;;;;;15.78;100.00;155416.03;5031056;28;20432;-83
2023/08/11 02:24:52;;;;;;;6.20;5.60;;;;;;;15.76;100.00;155410.84;5031345;28;20475;-83
2023/08/11 02:27:19;;;;;;;5.67;4.90;;;;;;;15.75;100.00;155408.22;5048251;28;20441;-83
2023/08/11 02:29:46;;;;;;;5.93;5.43;;;;;;;15.75;100.00;155406.97;5053095;28;20416;-83
2023/08/11 02:32:14;;;;;;;6.07;5.40;;;;;;;15.72;100.00;155400.47;5054412;28;20431;-83
2023/08/11 02:34:42;;;;;;;6.50;5.53;;;;;;;15.73;100.00;155401.72;5038882;28;20416;-83
2023/08/11 02:37:09;;;;;;;6.17;5.57;;;;;;;15.72;100.00;155399.16;5050344;28;20727;-83
2023/08/11 02:39:37;;;;;;;6.70;5.60;;;;;;;15.71;100.00;155397.84;5033700;28;20456;-83
2023/08/11 02:42:05;;;;;;;5.97;5.47;;;;;;;15.70;100.00;155395.22;5049669;28;20439;-83
2023/08/11 02:44:32;;;;;;;5.73;5.23;;;;;;;15.68;100.00;155388.72;5049203;28;20478;-83
2023/08/11 02:46:59;;;;;;;6.40;5.80;;;;;;;15.66;100.00;155384.84;5066485;28;20448;-83
2023/08/11 02:49:27;;;;;;;5.87;5.23;;;;;;;15.67;100.00;155387.41;5066410;28;20724;-83
2023/08/11 02:51:54;;;;;;;7.00;5.27;;;;;;;15.65;100.00;155380.91;5033242;28;20470;-83
2023/08/11 02:54:21;;;;;;;6.80;5.83;;;;;;;15.65;100.00;155382.22;5050287;28;20466;-83
2023/08/11 02:56:49;;;;;;;7.53;6.57;;;;;;;15.64;100.00;155379.66;5049627;28;20496;-83
2023/08/11 02:59:16;;;;;;;5.70;5.20;;;;;;;15.60;100.00;155369.22;5033094;28;20439;-83
2023/08/11 03:01:44;;;;;;;6.03;5.43;;;;;;;15.62;100.00;155373.16;5050062;28;20497;-84
2023/08/11 03:04:11;;;;;;;5.97;5.37;;;;;;;15.60;100.00;155367.91;5033430;28;20458;-83
2023/08/11 03:06:39;;;;;;;6.70;5.63;;;;;;;15.58;100.00;155364.03;5050133;28;20450;-83
2023/08/11 03:09:07;;;;;;;6.20;5.60;;;;;;;15.59;100.00;155365.34;5049789;28;20768;-83
2023/08/11 03:11:34;;;;;;;6.70;6.00;;;;;;;15.60;100.00;155369.22;5066766;28;20447;-83
2023/08/11 03:14:01;;;;;;;5.57;4.90;;;;;;;15.58;100.00;155362.75;5033383;28;20463;-83
2023/08/11 03:16:31;;;;;;;5.50;4.90;;;;;;;15.56;100.00;155358.84;5033114;28;20442;-83
2023/08/11 03:18:58;;;;;;;6.23;5.63;;;;;;;15.52;100.00;155348.44;5033747;28;20521;-83
2023/08/11 03:21:25;;;;;;;5.97;5.43;;;;;;;15.54;100.00;155353.63;5049875;28;20479;-83
2023/08/11 03:23:53;;;;;;;7.93;6.10;;;;;;;15.52;100.00;155348.44;5033831;28;20454;-83
2023/08/11 03:26:21;;;;;;;6.20;5.60;;;;;;;15.50;100.00;155343.25;5049853;28;20459;-83
2023/08/11 03:28:50;;;;;;;6.03;5.23;;;;;;;15.49;100.00;155339.38;5049729;28;20465;-83
2023/08/11 03:31:18;;;;;;;6.10;5.50;;;;;;;15.47;100.00;155335.44;5049779;28;20446;-83
2023/08/11 03:33:48;;;;;;;6.70;5.83;;;;;;;15.46;100.00;155331.56;5029624;28;20475;-83
2023/08/11 03:36:16;;;;;;;7.73;5.53;;;;;;;15.42;100.00;155322.41;5030396;28;20753;-83
2023/08/11 03:38:44;;;;;;;8.20;7.33;;;;;;;15.40;100.00;155317.22;5030378;28;20451;-83
2023/08/11 03:41:13;;;;;;;6.70;5.87;;;;;;;15.39;100.00;155314.59;5029801;28;20480;-83
2023/08/11 03:43:42;;;;;;;7.53;6.23;;;;;;;15.37;100.00;155309.41;5046796;28;20694;-83
2023/08/11 03:46:09;;;;;;;6.60;6.00;;;;;;;15.35;100.00;155302.91;5063234;28;20551;-83
2023/08/11 03:48:38;;;;;;;6.73;6.13;;;;;;;15.32;100.00;155296.41;5044795;28;20439;-83
2023/08/11 03:51:05;;;;;;;6.47;5.80;;;;;;;15.30;100.00;155291.22;5028084;28;20436;-82
2023/08/11 03:53:32;;;;;;;7.73;6.10;;;;;;;15.31;100.00;155292.50;5044947;28;20733;-82
2023/08/11 03:55:59;;;;;;;8.27;6.13;;;;;;;15.32;100.00;155295.09;5028843;28;20475;-82
2023/08/11 03:58:29;;;;;;;6.53;5.80;;;;;;;15.32;100.00;155296.41;5032658;28;20639;-82
2023/08/11 04:00:58;;;;;;;7.17;6.47;;;;;;;15.32;100.00;155295.09;5032905;28;20475;-82
2023/08/11 04:03:27;;;;;;;6.20;5.40;;;;;;;15.30;100.00;155291.22;5033421;28;20449;-82
2023/08/11 04:05:55;;;;;;;8.03;6.63;;;;;;;15.28;100.00;155286.00;5032061;28;20460;-76
2023/08/11 04:08:21;;;;;;;7.50;6.40;;;;;;;15.29;100.00;155288.63;5064528;28;20451;-75
2023/08/11 04:10:49;;;;;;;6.93;5.93;;;;;;;15.28;100.00;155286.00;5030972;28;20439;-75
2023/08/11 04:13:16;;;;;;;7.10;6.40;;;;;;;15.30;100.00;155291.22;5047193;28;20444;-75
2023/08/11 04:15:45;;;;;;;7.73;7.00;;;;;;;15.30;100.00;155289.91;5064212;28;20511;-75
2023/08/11 04:18:12;;;;;;;7.07;5.50;;;;;;;15.26;100.00;155280.81;5047402;28;20768;-75
2023/08/11 04:20:40;;;;;;;8.47;6.67;;;;;;;15.24;100.00;155276.94;5047126;28;20486;-75
2023/08/11 04:23:07;;;;;;;7.30;6.17;;;;;;;15.23;100.00;155273.00;5030657;28;20522;-75
2023/08/11 04:25:37;;;;;;;6.97;5.43;;;;;;;15.25;100.00;155279.50;5030950;28;20527;-75
2023/08/11 04:28:04;;;;;;;6.90;6.20;;;;;;;15.27;100.00;155282.13;5030952;28;20456;-75
2023/08/11 04:30:32;;;;;;;7.10;6.30;;;;;;;15.27;100.00;155282.13;5047259;28;20448;-75
2023/08/11 04:33:00;;;;;;;6.20;5.60;;;;;;;15.24;100.00;155276.94;5046595;28;20480;-76
2023/08/11 04:35:30;;;;;;;7.07;6.37;;;;;;;15.24;100.00;155276.94;5047422;28;20496;-76
2023/08/11 04:37:58;;;;;;;6.07;5.50;;;;;;;15.28;100.00;155286.00;5030267;28;20535;-76
2023/08/11 04:40:28;;;;;;;5.97;5.47;;;;;;;15.30;100.00;155291.22;5030953;28;20456;-76
2023/08/11 04:43:00;;;;;;;6.30;5.70;;;;;;;15.32;100.00;155296.41;5064399;28;20444;-76
2023/08/11 04:45:33;;;;;;;6.33;5.73;;;;;;;15.36;100.00;155306.78;5064252;28;20462;-75
2023/08/11 04:48:01;;;;;;;6.50;5.80;;;;;;;15.38;100.00;155311.97;5047211;28;20528;-76
2023/08/11 04:50:29;;;;;;;6.93;5.57;;;;;;;15.42;100.00;155321.09;5030561;28;20781;-76
2023/08/11 04:52:57;;;;;;;6.20;5.40;;;;;;;15.42;100.00;155322.41;5030278;28;20447;-75
2023/08/11 04:55:24;;;;;;;6.60;5.90;;;;;;;15.43;100.00;155325.00;5063811;28;20515;-75
2023/08/11 04:57:51;;;;;;;6.37;5.77;;;;;;;15.44;100.00;155326.28;5046879;28;20762;-77
2023/08/11 05:00:20;;;;;;;7.17;6.47;;;;;;;15.47;100.00;155334.13;5046752;28;20439;-76
2023/08/11 05:02:47;;;;;;;8.60;6.30;;;;;;;15.51;100.00;155344.56;5030252;28;20436;-76
2023/08/11 05:05:15;;;;;;;8.33;7.40;;;;;;;15.56;100.00;155357.56;5030287;28;20815;-75
2023/08/11 05:07:42;;;;;;;6.47;5.87;;;;;;;15.59;100.00;155365.34;5046205;28;20506;-75
2023/08/11 05:10:10;;;;;;;7.03;6.33;;;;;;;15.65;100.00;155382.22;5029894;28;20448;-75
2023/08/11 05:12:37;;;;;;;7.53;6.50;;;;;;;15.75;100.00;155406.97;5046263;28;20527;-75
2023/08/11 05:15:04;;;;;;;7.30;6.47;;;;;;;15.91;100.00;155448.56;5046381;28;20490;-75
2023/08/11 05:17:31;;;;;;;6.50;5.90;;;;;;;16.14;100.00;155507.06;5062559;28;20451;-75
2023/08/11 05:19:58;;;;;;;7.60;6.83;;;;;;;16.41;100.00;155577.28;5046173;28;20432;-74
2023/08/11 05:22:27;;;;;;;7.40;6.70;;;;;;;16.62;100.00;155631.97;5062750;28;20506;-75
2023/08/11 05:24:53;;;;;;;8.37;6.20;;;;;;;16.84;100.00;155689.19;5046104;28;20478;-75
2023/08/11 05:27:20;;;;;;;7.50;6.80;;;;;;;17.07;98.99;155746.44;5029318;28;20494;-75
2023/08/11 05:29:48;;;;;;;7.70;6.60;;;;;;;17.23;97.28;155789.41;5045838;28;20753;-75
2023/08/11 05:32:15;;;;;;;7.07;6.20;;;;;;;17.41;96.50;155834.94;5029815;28;20687;-75
2023/08/11 05:34:42;;;;;;;7.90;6.60;;;;;;;17.58;96.22;155879.22;5049027;28;20882;-75
2023/08/11 05:37:08;;;;;;;7.50;6.80;;;;;;;17.72;95.08;155915.69;5032829;28;20455;-76
2023/08/11 05:39:38;;;;;;;6.70;6.10;;;;;;;17.89;94.85;155959.97;5066744;28;20439;-75
2023/08/11 05:42:06;;;;;;;6.23;5.63;;;;;;;18.07;94.70;156006.84;5050522;28;20486;-76
2023/08/11 05:44:33;;;;;;;6.27;5.77;;;;;;;18.29;93.52;156061.53;5067040;28;20467;-76
2023/08/11 05:47:00;;;;;;;6.60;6.00;;;;;;;18.45;92.68;156103.22;5065968;28;20439;-75
2023/08/11 05:49:27;;;;;;;6.87;6.17;;;;;;;18.58;92.33;156137.13;5066148;28;20481;-75
2023/08/11 05:51:54;;;;;;;6.50;5.90;;;;;;;18.70;90.99;156168.38;5032679;28;20474;-75
2023/08/11 05:54:21;;;;;;;6.00;5.40;;;;;;;18.88;89.82;156215.28;5065657;28;20534;-75
2023/08/11 05:56:52;;;;;;;6.40;5.33;;;;;;;19.09;88.77;156270.00;5065589;28;20551;-75
2023/08/11 05:59:19;;;;;;;6.10;5.50;;;;;;;19.25;89.03;156311.72;5032664;28;20442;-75
2023/08/11 06:01:46;;;;;;;5.30;4.80;;;;;;;19.35;88.39;156337.78;5048733;28;20479;-74
2023/08/11 06:04:13;;;;;;;5.13;4.63;;;;;;;19.38;88.30;156344.34;5032600;28;20520;-74
2023/08/11 06:06:40;;;;;;;5.57;5.07;;;;;;;19.44;87.98;156361.31;5048602;28;20431;-75
2023/08/11 06:09:07;;;;;;;5.70;5.20;;;;;;;19.58;86.74;156395.19;5064892;28;20454;-75
2023/08/11 06:11:34;;;;;;;5.73;5.13;;;;;;;19.70;86.10;156427.78;5032247;28;20443;-75
2023/08/11 06:14:03;;;;;;;5.37;4.70;;;;;;;19.92;84.85;156483.84;5064944;28;20740;-75
2023/08/11 06:16:30;;;;;;;5.70;5.20;;;;;;;20.15;84.76;156542.56;5066194;28;20462;-76
2023/08/11 06:18:57;;;;;;;5.83;5.33;;;;;;;20.26;82.93;156572.56;5064473;28;20491;-76
2023/08/11 06:21:24;;;;;;;5.87;5.37;;;;;;;20.41;83.40;156611.69;5064849;28;20479;-76
2023/08/11 06:23:51;;;;;;;5.60;4.70;;;;;;;20.49;83.01;156632.56;5064972;28;20469;-75
2023/08/11 06:26:17;;;;;;;5.30;4.80;;;;;;;20.57;81.42;156653.44;5064684;28;20450;-75
2023/08/11 06:28:45;;;;;;;5.27;4.77;;;;;;;20.66;81.27;156675.63;5048654;28;20860;-76
2023/08/11 06:31:13;;;;;;;5.23;4.50;;;;;;;20.69;81.60;156683.47;5064888;28;20489;-75
2023/08/11 06:33:40;;;;;;;6.17;5.40;;;;;;;20.73;81.70;156692.63;5044261;28;20479;-75
2023/08/11 06:36:07;;;;;;;8.10;5.20;;;;;;;20.78;81.96;156706.97;5044411;28;20452;-76
2023/08/11 06:38:34;;;;;;;5.50;5.00;;;;;;;20.84;81.27;156722.59;5028106;28;20440;-75
2023/08/11 06:41:00;;;;;;;5.57;5.07;;;;;;;20.99;79.29;156760.44;5044435;28;20444;-75
2023/08/11 06:43:28;;;;;;;5.20;4.63;;;;;;;21.26;79.22;156829.66;5044166;28;20777;-75
2023/08/11 06:45:55;;;;;;;5.47;4.77;;;;;;;21.40;79.95;156867.50;5044315;28;20787;-75
2023/08/11 06:48:23;;;;;;;5.13;4.63;;;;;;;21.55;77.73;156906.66;5027877;28;20444;-76
2023/08/11 06:50:50;;;;;;;5.63;4.90;;;;;;;21.70;77.93;156945.84;5044026;28;20530;-75
2023/08/11 06:53:17;;;;;;;4.87;4.47;;;;;;;21.76;78.05;156961.47;5044151;28;20459;-75
2023/08/11 06:55:44;;;;;;;5.03;4.63;;;;;;;21.79;78.79;156969.31;5027735;28;20448;-75
2023/08/11 06:58:10;;;;;;;5.23;4.70;;;;;;;21.84;79.25;156982.38;5027466;28;20467;-75
2023/08/11 07:00:37;;;;;;;7.30;5.03;;;;;;;22.04;74.89;157032.03;5027724;28;20503;-75
2023/08/11 07:03:05;;;;;;;4.93;4.47;;;;;;;22.27;72.86;157093.44;5060538;28;20765;-75
2023/08/11 07:05:33;;;;;;;5.63;5.00;;;;;;;22.50;74.07;157152.22;5027087;28;20456;-75
2023/08/11 07:08:00;;;;;;;5.90;5.30;;;;;;;22.56;73.97;157167.88;5027693;28;20467;-75
2023/08/11 07:10:27;;;;;;;6.40;5.40;;;;;;;22.66;75.46;157192.78;5059940;28;20466;-76
2023/08/11 07:12:54;;;;;;;4.60;4.20;;;;;;;22.70;75.96;157204.50;5026007;28;20487;-76
2023/08/11 07:15:21;;;;;;;5.07;4.60;;;;;;;22.81;77.03;157231.94;5042030;28;20519;-76
2023/08/11 07:17:48;;;;;;;5.20;4.70;;;;;;;22.93;75.03;157264.59;5046445;28;20503;-78
2023/08/11 07:20:17;;;;;;;4.27;3.87;;;;;;;23.14;73.49;157316.91;5047907;28;20686;-78
2023/08/11 07:22:45;;;;;;;5.80;5.00;;;;;;;23.33;73.15;157367.84;5031828;28;20502;-78
2023/08/11 07:25:12;;;;;;;5.90;5.40;;;;;;;23.44;70.11;157396.66;5047772;28;20502;-78
2023/08/11 07:27:39;;;;;;;6.03;4.53;;;;;;;23.61;70.45;157439.81;5031323;28;20471;-78
2023/08/11 07:30:09;;;;;;;5.27;4.77;;;;;;;23.68;71.01;157456.78;5065260;28;20440;-78
2023/08/11 07:32:36;;;;;;;5.57;4.80;;;;;;;23.80;71.32;157488.19;5035725;28;20491;-78
2023/08/11 07:35:05;;;;;;;5.17;4.67;;;;;;;23.94;66.22;157526.06;5052624;28;20444;-78
2023/08/11 07:37:32;;;;;;;4.77;4.33;;;;;;;24.17;70.61;157586.25;5052023;28;20458;-78
2023/08/11 07:40:01;;;;;;;5.07;4.37;;;;;;;24.21;71.02;157596.75;5068997;28;20444;-78
2023/08/11 07:42:28;;;;;;;7.33;5.00;;;;;;;24.15;68.46;157581.03;5035639;28;20475;-78
2023/08/11 07:44:55;;;;;;;4.73;4.33;;;;;;;24.35;71.19;157632.06;5052093;28;20453;-79
2023/08/11 07:47:22;;;;;;;4.47;4.07;;;;;;;24.55;68.70;157684.38;5035348;28;20439;-77
2023/08/11 07:49:49;;;;;;;4.93;4.53;;;;;;;24.67;67.68;157714.47;5035446;28;20478;-78
2023/08/11 07:52:17;;;;;;;4.73;4.33;;;;;;;24.87;65.59;157765.50;5051802;28;20476;-78
2023/08/11 07:54:44;;;;;;;4.40;4.10;;;;;;;25.09;65.50;157824.41;5068253;28;20454;-78
2023/08/11 07:57:13;;;;;;;5.07;4.57;;;;;;;25.25;64.56;157866.28;5035124;28;20478;-78
2023/08/11 07:59:41;;;;;;;5.60;4.60;;;;;;;25.23;64.90;157861.03;5052104;28;20455;-77
2023/08/11 08:02:08;;;;;;;4.30;3.90;;;;;;;25.55;58.34;157943.53;5051848;28;20479;-78
2023/08/11 08:04:36;;;;;;;4.60;4.20;;;;;;;25.84;56.48;158018.19;5035251;28;20439;-78
2023/08/11 08:07:04;;;;;;;4.70;4.30;;;;;;;26.06;56.92;158075.75;5051762;28;20667;-78
2023/08/11 08:09:33;;;;;;;5.10;4.60;;;;;;;26.27;55.96;158130.81;5035585;28;20440;-78
2023/08/11 08:12:01;;;;;;;4.47;4.13;;;;;;;26.45;58.99;158177.94;5067839;28;20475;-78
2023/08/11 08:14:33;;;;;;;4.30;3.90;;;;;;;26.48;57.30;158185.81;5034713;28;20448;-78
2023/08/11 08:17:01;;;;;;;5.23;4.53;;;;;;;26.62;55.55;158221.16;5035045;28;20444;-80
2023/08/11 08:19:28;;;;;;;4.50;4.10;;;;;;;26.73;55.03;158248.69;5068108;28;20482;-77
2023/08/11 08:21:55;;;;;;;4.57;4.17;;;;;;;26.86;55.32;158282.78;5051339;28;20520;-79
2023/08/11 08:24:23;;;;;;;4.43;4.03;;;;;;;26.92;58.01;158299.84;5067727;28;20757;-79
2023/08/11 08:26:51;;;;;;;4.37;3.97;;;;;;;26.96;55.39;158310.28;5034148;28;20456;-79
2023/08/11 08:29:18;;;;;;;4.50;4.10;;;;;;;27.14;54.49;158356.13;5067689;28;20467;-79
2023/08/11 08:31:46;;;;;;;4.30;3.90;;;;;;;27.30;54.50;158398.06;5051231;28;20466;-79
2023/08/11 08:34:14;;;;;;;4.90;4.40;;;;;;;27.43;53.84;158430.91;5034008;28;20479;-78
2023/08/11 08:36:41;;;;;;;4.30;3.90;;;;;;;27.59;53.16;158474.13;5034603;28;20450;-78
2023/08/11 08:39:08;;;;;;;6.10;4.10;;;;;;;27.57;53.41;158467.56;5034302;28;20452;-78
2023/08/11 08:41:39;;;;;;;4.70;3.90;;;;;;;27.61;53.11;158479.41;5050519;28;20450;-77
2023/08/11 08:44:06;;;;;;;5.97;4.90;;;;;;;27.54;55.29;158461.03;5050633;28;20494;-77
2023/08/11 08:46:33;;;;;;;4.73;4.33;;;;;;;27.48;53.60;158445.28;5033727;28;20452;-78
2023/08/11 08:49:08;;;;;;;4.87;4.47;;;;;;;27.63;52.92;158484.63;5034056;28;20443;-78
2023/08/11 08:51:36;;;;;;;4.60;4.20;;;;;;;27.65;53.63;158489.88;5050516;28;20443;-77
2023/08/11 08:54:04;;;;;;;5.70;4.93;;;;;;;27.69;52.71;158500.31;5033709;28;20439;-79
2023/08/11 08:56:32;;;;;;;5.70;4.80;;;;;;;27.70;53.06;158502.97;5051209;28;20443;-78
2023/08/11 08:58:59;;;;;;;4.57;4.10;;;;;;;27.69;51.58;158500.31;5051252;28;20696;-78
2023/08/11 09:01:26;;;;;;;5.40;4.90;;;;;;;27.68;55.22;158497.75;5067482;28;20463;-78
2023/08/11 09:03:54;;;;;;;4.70;4.30;;;;;;;27.64;53.46;158487.22;5067696;28;20467;-78
2023/08/11 09:06:23;;;;;;;5.87;5.10;;;;;;;27.72;54.30;158506.94;5051055;28;20444;-78
2023/08/11 09:08:50;;;;;;;4.07;3.77;;;;;;;27.77;55.52;158521.31;5050754;28;20431;-78
2023/08/11 09:11:17;;;;;;;5.03;4.53;;;;;;;27.77;53.30;158521.31;5034090;28;20741;-78
2023/08/11 09:13:45;;;;;;;4.43;4.07;;;;;;;27.81;55.24;158530.50;5034200;28;20455;-78
2023/08/11 09:16:13;;;;;;;4.87;4.47;;;;;;;27.80;51.49;158529.16;5034001;28;20459;-78
2023/08/11 09:18:40;;;;;;;4.70;4.30;;;;;;;27.87;53.07;158546.25;5067152;28;20454;-78
2023/08/11 09:21:08;;;;;;;6.27;5.67;;;;;;;28.03;51.78;158586.91;5033618;28;20516;-78
2023/08/11 09:23:37;;;;;;;4.57;4.17;;;;;;;28.07;52.57;158597.38;5050352;28;20472;-78
2023/08/11 09:26:04;;;;;;;4.77;4.30;;;;;;;28.10;52.35;158606.56;5033608;28;20503;-78
2023/08/11 09:28:32;;;;;;;5.10;4.70;;;;;;;27.99;60.87;158577.69;5050623;28;20451;-78
2023/08/11 09:31:00;;;;;;;4.30;4.00;;;;;;;27.85;52.74;158541.00;5067378;28;20438;-79
2023/08/11 09:33:28;;;;;;;4.80;4.40;;;;;;;27.79;56.00;158526.59;5049599;28;20526;-78
2023/08/11 09:35:55;;;;;;;4.87;4.37;;;;;;;27.65;53.10;158489.88;5049978;28;20435;-78
2023/08/11 09:38:26;;;;;;;4.90;4.40;;;;;;;27.58;53.53;158471.53;5067219;28;20447;-78
2023/08/11 09:40:54;;;;;;;4.83;4.40;;;;;;;27.60;60.37;158476.75;5066858;28;20443;-78
2023/08/11 09:43:24;;;;;;;5.47;4.60;;;;;;;27.59;58.66;158474.13;5050250;28;20487;-79
2023/08/11 09:45:53;;;;;;;7.13;4.30;;;;;;;27.47;54.38;158441.38;5050021;28;20463;-78
2023/08/11 09:48:21;;;;;;;6.70;4.70;;;;;;;27.58;55.67;158470.22;5033578;28;20459;-78
2023/08/11 09:50:50;;;;;;;4.57;4.13;;;;;;;27.57;55.59;158468.91;5033301;28;20433;-78
2023/08/11 09:53:19;;;;;;;5.30;4.80;;;;;;;27.67;53.66;158493.78;5049349;28;20444;-78
2023/08/11 09:55:48;;;;;;;5.40;4.90;;;;;;;27.74;53.47;158513.47;5049021;28;20439;-78
2023/08/11 09:58:18;;;;;;;4.60;4.20;;;;;;;27.66;53.52;158491.19;5066717;28;20456;-78
2023/08/11 10:00:47;;;;;;;4.87;4.43;;;;;;;27.72;53.67;158508.19;5033226;28;20691;-78
2023/08/11 10:03:19;;;;;;;5.00;4.53;;;;;;;27.73;59.05;158509.53;5049746;28;20472;-78
2023/08/11 10:05:48;;;;;;;5.37;4.97;;;;;;;27.69;54.67;158499.06;5032811;28;20512;-78
2023/08/11 10:08:19;;;;;;;4.53;4.13;;;;;;;27.80;53.75;158529.16;5033005;28;20737;-79
2023/08/11 10:10:46;;;;;;;5.00;4.50;;;;;;;27.89;56.11;158550.16;5049555;28;20447;-79
2023/08/11 10:13:20;;;;;;;4.83;4.43;;;;;;;27.84;60.04;158537.03;5049680;28;20436;-78
2023/08/11 10:15:48;;;;;;;5.20;4.70;;;;;;;27.84;54.70;158538.38;5033375;28;20635;-78
2023/08/11 10:18:17;;;;;;;5.00;4.50;;;;;;;27.99;54.41;158576.34;5066096;28;20454;-78
2023/08/11 10:20:46;;;;;;;5.27;4.80;;;;;;;28.06;53.71;158596.13;5033286;28;20443;-79
2023/08/11 10:23:17;;;;;;;5.03;4.63;;;;;;;28.05;52.63;158593.47;5033224;28;20471;-79
2023/08/11 10:25:45;;;;;;;5.80;4.80;;;;;;;28.03;53.80;158586.91;5049675;28;20499;-79
2023/08/11 10:28:17;;;;;;;4.80;4.40;;;;;;;27.89;54.67;158550.16;5049641;28;20499;-79
2023/08/11 10:30:55;;;;;;;5.03;4.13;;;;;;;27.78;57.74;158523.94;5049784;28;20440;-79
2023/08/11 10:33:29;;;;;;;4.67;4.13;;;;;;;27.81;54.19;158530.50;5032722;28;20474;-78
2023/08/11 10:35:58;;;;;;;5.20;4.80;;;;;;;27.93;57.42;158561.97;5049075;28;20448;-79
2023/08/11 10:38:27;;;;;;;5.47;5.00;;;;;;;27.93;58.20;158560.66;5033356;28;20448;-79
2023/08/11 10:41:00;;;;;;;6.67;5.10;;;;;;;27.84;54.83;158538.38;5033236;28;20439;-79
2023/08/11 10:43:34;;;;;;;7.33;5.00;;;;;;;27.83;57.79;158534.44;5049650;28;20550;-79
2023/08/11 10:46:23;;;;;;;4.57;4.17;;;;;;;27.98;53.28;158575.09;5032385;28;20436;-79
2023/08/11 10:48:51;;;;;;;5.10;4.70;;;;;;;28.02;52.57;158584.28;5032267;28;20475;-79
2023/08/11 10:51:27;;;;;;;4.43;4.03;;;;;;;27.88;53.58;158547.56;5031984;28;20474;-79
2023/08/11 10:53:56;;;;;;;5.00;4.60;;;;;;;27.76;53.31;158518.72;5032125;28;20522;-79
2023/08/11 10:56:32;;;;;;;8.03;4.70;;;;;;;27.55;53.04;158462.34;5032648;28;20432;-79
2023/08/11 10:59:13;;;;;;;5.60;5.13;;;;;;;27.33;54.31;158404.63;5032082;28;20482;-79
2023/08/11 11:01:45;;;;;;;4.83;4.40;;;;;;;27.23;54.36;158379.75;5049277;28;20443;-79
2023/08/11 11:04:13;;;;;;;5.60;5.10;;;;;;;27.16;54.80;158362.69;5048716;28;20503;-79
2023/08/11 11:06:40;;;;;;;5.27;4.77;;;;;;;27.13;54.02;158354.88;5047949;28;20460;-80
2023/08/11 11:09:08;;;;;;;6.43;5.27;;;;;;;27.08;55.40;158340.44;5046746;28;20448;-80
2023/08/11 11:11:36;;;;;;;5.70;5.20;;;;;;;27.03;55.04;158327.34;5030394;28;20451;-80
2023/08/11 11:14:05;;;;;;;4.43;4.07;;;;;;;27.20;55.04;158373.19;5063474;28;20640;-80
2023/08/11 11:16:35;;;;;;;5.70;5.20;;;;;;;27.40;54.78;158424.38;5063627;28;20456;-80
2023/08/11 11:19:05;;;;;;;5.60;5.10;;;;;;;27.46;54.09;158440.06;5046783;28;20424;-80
2023/08/11 11:21:33;;;;;;;5.43;5.03;;;;;;;27.41;55.54;158426.94;5030839;28;20436;-80
2023/08/11 11:24:01;;;;;;;5.50;5.00;;;;;;;27.37;56.96;158416.44;5030503;28;20494;-80
2023/08/11 11:26:29;;;;;;;6.20;5.10;;;;;;;27.29;57.88;158395.47;5046919;28;20440;-80
2023/08/11 11:28:58;;;;;;;6.13;4.90;;;;;;;27.27;55.79;158388.94;5046804;28;20467;-80
2023/08/11 11:31:27;;;;;;;5.30;4.90;;;;;;;27.33;55.83;158405.94;5063447;28;20447;-80